Time;durP1;ratioP1;P1;durP2;ratioP2;P2;SDS_P1;SDS_P2;PMS_P1;PMS_P2;Temp;Humidity;BMP_temperature;BMP_pressure;BME280_temperature;BME280_humidity;BME280_pressure;Samples;Min_cycle;Max_cycle;Signal;HPM_P1;HPM_P2
2022/04/02 00:01:39;;;;;;;1.20;0.70;;;18.50;35.30;;;;;;5137409;27;20019;-55
2022/04/02 00:04:08;;;;;;;1.17;0.82;;;18.50;35.30;;;;;;5137294;27;20061;-55
2022/04/02 00:06:34;;;;;;;1.50;0.90;;;18.50;35.40;;;;;;5119817;27;20015;-54
2022/04/02 00:09:01;;;;;;;1.60;0.70;;;18.50;35.30;;;;;;5137474;27;20038;-54
2022/04/02 00:11:27;;;;;;;0.80;0.60;;;18.50;35.40;;;;;;5137858;27;20072;-56
2022/04/02 00:13:53;;;;;;;1.45;0.60;;;18.50;35.40;;;;;;5137635;27;20015;-56
2022/04/02 00:16:19;;;;;;;1.55;0.90;;;18.50;35.30;;;;;;5137509;27;20090;-54
2022/04/02 00:18:45;;;;;;;1.08;0.70;;;18.50;35.40;;;;;;5119402;27;20086;-54
2022/04/02 00:21:12;;;;;;;1.27;0.70;;;18.50;35.50;;;;;;5137371;27;20039;-58
2022/04/02 00:23:39;;;;;;;1.55;0.70;;;18.50;35.40;;;;;;5137178;27;20019;-56
2022/04/02 00:26:07;;;;;;;1.13;0.60;;;18.50;35.30;;;;;;5137396;27;20112;-55
2022/04/02 00:28:35;;;;;;;1.40;0.77;;;18.40;35.40;;;;;;5137475;27;20011;-55
2022/04/02 00:31:00;;;;;;;1.73;0.65;;;18.40;35.40;;;;;;5136865;27;20056;-54
2022/04/02 00:33:27;;;;;;;1.42;0.70;;;18.40;35.40;;;;;;5137286;27;20011;-55
2022/04/02 00:35:53;;;;;;;1.35;0.90;;;18.40;35.50;;;;;;5136923;27;20015;-57
2022/04/02 00:38:19;;;;;;;0.73;0.50;;;18.40;35.50;;;;;;5136717;27;20117;-54
2022/04/02 00:40:45;;;;;;;1.25;0.75;;;18.40;35.40;;;;;;5137141;27;20015;-57
2022/04/02 00:43:25;;;;;;;1.58;0.80;;;18.40;35.40;;;;;;5136735;27;20061;-55
2022/04/02 00:45:52;;;;;;;1.45;0.80;;;18.40;35.40;;;;;;5136924;27;20027;-54
2022/04/02 00:48:19;;;;;;;0.70;0.60;;;18.40;35.40;;;;;;5137010;27;20012;-57
2022/04/02 00:50:46;;;;;;;1.60;0.70;;;18.40;35.40;;;;;;5136718;27;20465;-56
2022/04/02 00:53:12;;;;;;;1.85;0.73;;;18.40;35.50;;;;;;5136641;27;20043;-58
2022/04/02 00:55:38;;;;;;;5.22;0.70;;;18.40;35.50;;;;;;5118832;27;20042;-58
2022/04/02 00:58:04;;;;;;;1.17;0.60;;;18.40;35.50;;;;;;5118345;27;20025;-57
2022/04/02 01:00:31;;;;;;;0.70;0.60;;;18.40;35.50;;;;;;5136681;27;20023;-58
2022/04/02 01:02:59;;;;;;;1.02;0.70;;;18.40;35.50;;;;;;5137031;27;20015;-58
2022/04/02 01:05:25;;;;;;;1.08;0.70;;;18.30;35.40;;;;;;5136502;27;20054;-58
2022/04/02 01:07:51;;;;;;;1.40;0.70;;;18.30;35.50;;;;;;5136782;27;20018;-58
2022/04/02 01:10:17;;;;;;;1.48;0.80;;;18.30;35.40;;;;;;5136600;27;20011;-57
2022/04/02 01:12:44;;;;;;;1.75;0.70;;;18.30;35.50;;;;;;5136408;27;20015;-58
2022/04/02 01:15:10;;;;;;;1.30;0.75;;;18.30;35.50;;;;;;5118014;27;20102;-58
2022/04/02 01:17:36;;;;;;;1.50;0.80;;;18.30;35.50;;;;;;5136510;27;20525;-58
2022/04/02 01:20:03;;;;;;;2.10;0.70;;;18.30;35.50;;;;;;5136801;27;20057;-58
2022/04/02 01:22:29;;;;;;;2.50;0.80;;;18.30;35.50;;;;;;5136410;27;20039;-58
2022/04/02 01:24:55;;;;;;;0.77;0.47;;;18.20;35.50;;;;;;5136911;27;20038;-58
2022/04/02 01:27:21;;;;;;;1.45;0.70;;;18.30;35.50;;;;;;5136560;27;20408;-58
2022/04/02 01:29:48;;;;;;;1.80;0.77;;;18.20;35.60;;;;;;5118898;27;20023;-57
2022/04/02 01:32:14;;;;;;;0.80;0.70;;;18.20;35.60;;;;;;5137385;27;20018;-59
2022/04/02 01:34:40;;;;;;;1.45;0.60;;;18.30;35.50;;;;;;5136581;27;20027;-60
2022/04/02 01:37:07;;;;;;;2.10;0.68;;;18.20;35.50;;;;;;5136539;27;20015;-59
2022/04/02 01:39:34;;;;;;;0.95;0.60;;;18.20;35.50;;;;;;5118123;27;20019;-59
2022/04/02 01:42:06;;;;;;;0.93;0.68;;;18.20;35.60;;;;;;5136661;27;20040;-60
2022/04/02 01:44:32;;;;;;;1.25;0.70;;;18.20;35.60;;;;;;5118558;27;20453;-59
2022/04/02 01:46:58;;;;;;;1.15;0.57;;;18.20;35.60;;;;;;5135752;27;20501;-59
2022/04/02 01:49:24;;;;;;;1.02;0.65;;;18.20;35.60;;;;;;5135948;27;20031;-59
2022/04/02 01:51:50;;;;;;;1.27;0.70;;;18.20;35.60;;;;;;5135639;27;20020;-59
2022/04/02 01:54:17;;;;;;;1.05;0.70;;;18.20;35.60;;;;;;5100325;27;20015;-59
2022/04/02 01:56:43;;;;;;;1.50;0.80;;;18.10;35.60;;;;;;5135073;27;20100;-58
2022/04/02 01:59:09;;;;;;;2.05;0.60;;;18.10;36.10;;;;;;5134814;27;20024;-59
2022/04/02 02:01:34;;;;;;;1.80;0.63;;;18.10;35.60;;;;;;5116766;27;20020;-59
2022/04/02 02:04:01;;;;;;;1.85;0.75;;;18.10;35.60;;;;;;5134808;27;20488;-58
2022/04/02 02:06:27;;;;;;;1.63;0.60;;;18.10;35.70;;;;;;5135226;27;20023;-58
2022/04/02 02:08:53;;;;;;;1.10;0.68;;;18.10;35.60;;;;;;5117798;27;20041;-58
2022/04/02 02:11:21;;;;;;;1.23;0.80;;;18.10;35.60;;;;;;5136632;27;20512;-60
2022/04/02 02:13:47;;;;;;;1.35;0.50;;;18.10;35.60;;;;;;5136372;27;20019;-59
2022/04/02 02:16:13;;;;;;;1.13;0.70;;;18.10;35.70;;;;;;5135898;27;20533;-59
2022/04/02 02:18:38;;;;;;;0.73;0.57;;;18.10;35.70;;;;;;5135633;27;20472;-60
2022/04/02 02:21:04;;;;;;;2.08;0.85;;;18.10;35.70;;;;;;5117379;27;20054;-60
2022/04/02 02:23:31;;;;;;;1.05;0.60;;;18.10;35.70;;;;;;5135542;27;20469;-59
2022/04/02 02:25:59;;;;;;;1.33;0.52;;;18.10;35.70;;;;;;5135205;27;20122;-60
2022/04/02 02:28:25;;;;;;;0.85;0.50;;;18.10;35.70;;;;;;5135454;27;20008;-59
2022/04/02 02:30:52;;;;;;;1.25;0.80;;;18.10;35.70;;;;;;5135678;27;20027;-58
2022/04/02 02:36:03;;;;;;;1.33;0.60;;;18.00;35.70;;;;;;5135214;27;20042;-59
2022/04/02 02:38:29;;;;;;;0.68;0.60;;;18.00;35.70;;;;;;5134016;27;20031;-59
2022/04/02 02:40:55;;;;;;;1.05;0.60;;;18.00;35.70;;;;;;5134780;27;20438;-59
2022/04/02 02:43:22;;;;;;;0.40;0.40;;;18.00;35.70;;;;;;5134444;27;20016;-59
2022/04/02 02:45:48;;;;;;;1.73;0.88;;;18.00;35.70;;;;;;5116291;28;20503;-59
2022/04/02 02:48:14;;;;;;;0.63;0.57;;;18.00;35.80;;;;;;5134573;27;20011;-59
2022/04/02 02:50:39;;;;;;;1.08;0.60;;;18.00;35.70;;;;;;5134303;27;20023;-59
2022/04/02 02:53:05;;;;;;;1.23;0.60;;;18.00;35.80;;;;;;5134461;27;20090;-59
2022/04/02 02:55:31;;;;;;;1.67;0.90;;;18.00;35.70;;;;;;5134595;27;20354;-59
2022/04/02 02:57:56;;;;;;;2.45;0.77;;;18.00;35.80;;;;;;5134710;27;20448;-60
2022/04/02 03:00:22;;;;;;;1.20;0.75;;;18.00;35.80;;;;;;5134533;28;20080;-59
2022/04/02 03:02:48;;;;;;;1.00;0.50;;;18.00;35.80;;;;;;5134553;28;20354;-59
2022/04/02 03:05:16;;;;;;;0.57;0.47;;;17.90;35.70;;;;;;5134461;28;20106;-59
2022/04/02 03:07:50;;;;;;;1.40;0.60;;;18.00;35.80;;;;;;5134479;28;20008;-59
2022/04/02 03:10:23;;;;;;;1.10;0.52;;;17.90;35.80;;;;;;5134239;28;20039;-59
2022/04/02 03:12:52;;;;;;;0.95;0.65;;;17.90;35.80;;;;;;5134630;28;20011;-59
2022/04/02 03:15:18;;;;;;;3.10;0.77;;;17.90;35.90;;;;;;5134138;28;20075;-59
2022/04/02 03:17:44;;;;;;;2.20;0.65;;;17.90;35.80;;;;;;5134420;28;20415;-59
2022/04/02 03:20:11;;;;;;;0.90;0.40;;;17.90;35.80;;;;;;5134421;28;20482;-58
2022/04/02 03:22:41;;;;;;;0.68;0.50;;;17.90;35.80;;;;;;5134102;28;20103;-57
2022/04/02 03:25:11;;;;;;;1.55;0.50;;;17.90;35.80;;;;;;5134354;28;20016;-58
2022/04/02 03:27:38;;;;;;;0.67;0.57;;;17.90;35.80;;;;;;5133988;28;20021;-59
2022/04/02 03:30:05;;;;;;;2.40;0.70;;;17.90;35.80;;;;;;5134430;28;20011;-58
2022/04/02 03:32:31;;;;;;;1.25;0.57;;;17.90;35.80;;;;;;5134535;28;20468;-58
2022/04/02 03:34:58;;;;;;;1.25;0.68;;;17.90;35.90;;;;;;5133986;28;20018;-58
2022/04/02 03:37:24;;;;;;;1.48;0.98;;;17.90;35.80;;;;;;5133963;28;20043;-59
2022/04/02 03:39:51;;;;;;;1.65;0.73;;;17.90;35.80;;;;;;5134806;28;20024;-59
2022/04/02 03:42:18;;;;;;;1.38;0.80;;;17.90;35.90;;;;;;5134262;28;20019;-59
2022/04/02 03:44:44;;;;;;;1.25;0.55;;;17.80;35.80;;;;;;5133984;28;20023;-59
2022/04/02 03:47:11;;;;;;;0.60;0.55;;;17.90;35.90;;;;;;5133863;28;20039;-58
2022/04/02 03:49:45;;;;;;;1.10;0.57;;;17.80;35.80;;;;;;5133918;27;20036;-59
2022/04/02 03:52:11;;;;;;;3.30;0.70;;;17.80;35.80;;;;;;5137867;27;20031;-58
2022/04/02 03:54:38;;;;;;;2.58;0.82;;;17.80;35.90;;;;;;5137858;27;20147;-58
2022/04/02 03:57:05;;;;;;;0.77;0.52;;;17.80;35.90;;;;;;5137480;27;20024;-59
2022/04/02 03:59:31;;;;;;;1.05;0.60;;;17.80;35.90;;;;;;5137727;27;20034;-58
2022/04/02 04:01:58;;;;;;;0.60;0.50;;;17.80;35.90;;;;;;5137940;27;20083;-58
2022/04/02 04:04:24;;;;;;;1.42;0.50;;;17.80;35.90;;;;;;5137444;27;20019;-58
2022/04/02 04:06:51;;;;;;;1.15;0.55;;;17.80;35.90;;;;;;5137608;27;20369;-59
2022/04/02 04:09:17;;;;;;;0.55;0.45;;;17.80;35.90;;;;;;5138065;27;20023;-57
2022/04/02 04:11:44;;;;;;;2.67;0.70;;;17.70;35.90;;;;;;5137684;27;20015;-59
2022/04/02 04:14:10;;;;;;;1.77;0.70;;;17.80;35.90;;;;;;5137851;27;20023;-58
2022/04/02 04:16:36;;;;;;;1.52;0.50;;;17.80;35.90;;;;;;5118651;27;20095;-57
2022/04/02 04:19:03;;;;;;;0.95;0.60;;;17.70;35.90;;;;;;5137132;27;20481;-59
2022/04/02 04:21:29;;;;;;;3.53;0.57;;;17.70;36.00;;;;;;5136979;27;20527;-58
2022/04/02 04:23:57;;;;;;;1.02;0.68;;;17.80;35.90;;;;;;5137238;27;20011;-58
2022/04/02 04:26:23;;;;;;;1.48;0.70;;;17.70;35.90;;;;;;5136865;27;20031;-58
2022/04/02 04:28:50;;;;;;;1.67;0.63;;;17.70;35.80;;;;;;5137112;27;20015;-58
2022/04/02 04:31:17;;;;;;;0.75;0.55;;;17.70;35.90;;;;;;5136739;27;20016;-58
2022/04/02 04:33:44;;;;;;;0.88;0.50;;;17.70;35.90;;;;;;5137095;27;20458;-59
2022/04/02 04:36:10;;;;;;;1.13;0.55;;;17.70;35.90;;;;;;5136888;27;20039;-58
2022/04/02 04:38:36;;;;;;;1.13;0.60;;;17.70;35.90;;;;;;5136947;27;20023;-59
2022/04/02 04:41:02;;;;;;;1.00;0.65;;;17.70;35.90;;;;;;5118874;27;20070;-58
2022/04/02 04:43:28;;;;;;;0.70;0.50;;;17.70;35.90;;;;;;5136889;27;20019;-59
2022/04/02 04:45:55;;;;;;;0.88;0.45;;;17.70;35.80;;;;;;5136609;27;20035;-59
2022/04/02 04:48:21;;;;;;;0.50;0.40;;;17.70;35.90;;;;;;5136914;27;20030;-59
2022/04/02 04:50:48;;;;;;;1.33;0.73;;;17.70;35.90;;;;;;5136515;27;20458;-58
2022/04/02 04:53:14;;;;;;;0.38;0.30;;;17.70;35.90;;;;;;5118280;27;20517;-59
2022/04/02 04:55:40;;;;;;;1.90;0.60;;;17.60;35.80;;;;;;5136582;27;20026;-59
2022/04/02 04:58:06;;;;;;;1.25;0.60;;;17.70;35.90;;;;;;5118499;27;20041;-58
2022/04/02 05:00:32;;;;;;;1.10;0.50;;;17.70;35.90;;;;;;5136257;27;20465;-58
2022/04/02 05:02:59;;;;;;;1.48;0.50;;;17.60;35.90;;;;;;5135828;27;20038;-59
2022/04/02 05:05:29;;;;;;;1.10;0.60;;;17.60;35.80;;;;;;5137795;27;20030;-58
2022/04/02 05:07:54;;;;;;;1.00;0.50;;;17.60;35.90;;;;;;5137838;27;20088;-58
2022/04/02 05:10:21;;;;;;;1.52;0.70;;;17.60;35.90;;;;;;5119033;27;20061;-59
2022/04/02 05:12:47;;;;;;;0.70;0.50;;;17.60;35.90;;;;;;5137142;27;20094;-57
2022/04/02 05:15:13;;;;;;;0.77;0.50;;;17.60;35.90;;;;;;5137867;27;20046;-59
2022/04/02 05:17:40;;;;;;;1.73;0.80;;;17.60;35.90;;;;;;5137114;27;20103;-58
2022/04/02 05:20:07;;;;;;;1.45;0.70;;;17.60;35.90;;;;;;5137488;27;20052;-59
2022/04/02 05:22:33;;;;;;;1.15;0.57;;;17.60;35.90;;;;;;5136698;27;20091;-59
2022/04/02 05:25:01;;;;;;;1.17;0.63;;;17.60;35.90;;;;;;5137080;27;20027;-60
2022/04/02 05:27:28;;;;;;;1.05;0.70;;;17.60;35.90;;;;;;5136872;27;20015;-60
2022/04/02 05:29:54;;;;;;;1.42;0.65;;;17.60;35.90;;;;;;5136686;27;20103;-58
2022/04/02 05:32:20;;;;;;;1.08;0.50;;;17.60;35.90;;;;;;5136509;27;20094;-59
2022/04/02 05:34:45;;;;;;;1.58;0.63;;;17.60;36.00;;;;;;5136116;27;20537;-58
2022/04/02 05:37:11;;;;;;;1.00;0.60;;;17.60;35.90;;;;;;5136177;27;20035;-57
2022/04/02 05:39:37;;;;;;;0.93;0.52;;;17.60;35.90;;;;;;5136291;27;20377;-58
2022/04/02 05:42:05;;;;;;;0.57;0.47;;;17.60;35.90;;;;;;5136206;27;20017;-59
2022/04/02 05:44:31;;;;;;;1.25;0.50;;;17.60;35.90;;;;;;5117623;27;20058;-58
2022/04/02 05:46:57;;;;;;;0.88;0.43;;;17.60;35.90;;;;;;5136161;27;20055;-59
2022/04/02 05:49:23;;;;;;;1.60;0.60;;;17.50;35.80;;;;;;5136224;27;20023;-59
2022/04/02 05:51:50;;;;;;;1.02;0.57;;;17.50;35.80;;;;;;5136555;27;20485;-58
2022/04/02 05:54:16;;;;;;;0.93;0.50;;;17.60;35.90;;;;;;5137810;27;20075;-61
2022/04/02 05:56:44;;;;;;;0.73;0.50;;;17.50;35.80;;;;;;5141589;27;20019;-57
2022/04/02 05:59:09;;;;;;;0.68;0.52;;;17.50;35.80;;;;;;5140900;27;20094;-59
2022/04/02 06:01:36;;;;;;;0.90;0.50;;;17.50;35.80;;;;;;5139463;27;20051;-59
2022/04/02 06:04:02;;;;;;;1.33;0.65;;;17.50;35.90;;;;;;5135918;27;20505;-59
2022/04/02 06:06:28;;;;;;;0.80;0.47;;;17.50;35.90;;;;;;5117581;27;20008;-57
2022/04/02 06:08:55;;;;;;;1.63;0.60;;;17.50;35.90;;;;;;5135853;27;20027;-59
2022/04/02 06:11:21;;;;;;;1.38;0.60;;;17.50;35.90;;;;;;5118186;27;20019;-59
2022/04/02 06:13:47;;;;;;;1.30;0.50;;;17.50;35.90;;;;;;5135950;27;20053;-58
2022/04/02 06:16:14;;;;;;;1.13;0.50;;;17.50;35.90;;;;;;5135317;27;20014;-58
2022/04/02 06:18:40;;;;;;;1.58;0.75;;;17.50;35.80;;;;;;5133288;27;20031;-58
2022/04/02 06:21:06;;;;;;;0.73;0.55;;;17.50;35.80;;;;;;5134969;27;20046;-59
2022/04/02 06:23:33;;;;;;;1.30;0.60;;;17.50;35.90;;;;;;5135327;27;20031;-57
2022/04/02 06:25:58;;;;;;;0.70;0.60;;;17.50;35.90;;;;;;5116556;27;20485;-59
2022/04/02 06:28:24;;;;;;;3.63;0.50;;;17.50;35.90;;;;;;5134757;27;20011;-59
2022/04/02 06:30:51;;;;;;;1.15;0.60;;;17.50;35.80;;;;;;5117415;27;20084;-59
2022/04/02 06:33:17;;;;;;;0.88;0.63;;;17.50;35.70;;;;;;5116534;27;20198;-58
2022/04/02 06:35:43;;;;;;;0.80;0.50;;;17.50;35.80;;;;;;5116808;27;20064;-59
2022/04/02 06:38:09;;;;;;;1.02;0.52;;;17.50;35.80;;;;;;5116798;27;20442;-59
2022/04/02 06:40:34;;;;;;;1.17;0.60;;;17.50;35.80;;;;;;5134533;27;20022;-58
2022/04/02 06:43:01;;;;;;;1.02;0.40;;;17.50;35.80;;;;;;5134605;27;20020;-58
2022/04/02 06:45:26;;;;;;;2.22;0.63;;;17.50;35.80;;;;;;5134192;27;20106;-58
2022/04/02 06:47:52;;;;;;;1.00;0.60;;;17.50;35.60;;;;;;5134133;27;20061;-59
2022/04/02 06:50:18;;;;;;;0.82;0.50;;;17.40;35.70;;;;;;5134434;27;20022;-59
2022/04/02 06:52:44;;;;;;;0.93;0.57;;;17.50;35.70;;;;;;5134378;27;20493;-58
2022/04/02 06:55:11;;;;;;;2.05;0.60;;;17.50;35.70;;;;;;5134083;27;20477;-58
2022/04/02 06:57:43;;;;;;;0.80;0.40;;;17.50;35.70;;;;;;5116238;27;20092;-58
2022/04/02 07:00:11;;;;;;;0.95;0.40;;;17.50;35.70;;;;;;5134531;27;20030;-58
2022/04/02 07:02:37;;;;;;;0.70;0.47;;;17.40;35.70;;;;;;5134637;28;20102;-58
2022/04/02 07:05:04;;;;;;;1.63;0.77;;;17.40;35.60;;;;;;5133980;28;20023;-58
2022/04/02 07:07:33;;;;;;;1.40;0.68;;;17.40;35.60;;;;;;5134162;28;20030;-57
2022/04/02 07:10:00;;;;;;;1.17;0.65;;;17.40;35.70;;;;;;5133863;28;20069;-58
2022/04/02 07:12:26;;;;;;;1.52;0.50;;;17.40;35.60;;;;;;5134334;28;20068;-58
2022/04/02 07:14:52;;;;;;;1.10;0.50;;;17.40;35.70;;;;;;5134296;28;20016;-58
2022/04/02 07:17:18;;;;;;;2.30;0.57;;;17.50;35.70;;;;;;5115451;28;20408;-58
2022/04/02 07:19:44;;;;;;;1.48;0.70;;;17.40;35.60;;;;;;5133965;28;20015;-58
2022/04/02 07:22:10;;;;;;;0.82;0.60;;;17.50;35.60;;;;;;5098320;28;20569;-58
2022/04/02 07:24:39;;;;;;;1.08;0.50;;;17.50;35.50;;;;;;5133520;27;20021;-58
2022/04/02 07:27:05;;;;;;;6.05;0.60;;;17.50;35.60;;;;;;5137940;27;20007;-58
2022/04/02 07:29:32;;;;;;;1.02;0.55;;;17.50;35.50;;;;;;5137504;27;20075;-57
2022/04/02 07:31:59;;;;;;;0.88;0.40;;;17.50;35.50;;;;;;5137535;27;20023;-58
2022/04/02 07:34:25;;;;;;;1.27;0.75;;;17.50;35.50;;;;;;5137856;27;20012;-58
2022/04/02 07:37:04;;;;;;;0.88;0.60;;;17.50;35.60;;;;;;5137776;27;20015;-58
2022/04/02 07:39:46;;;;;;;1.17;0.57;;;17.50;35.60;;;;;;5137695;27;20016;-58
2022/04/02 07:42:32;;;;;;;0.90;0.40;;;17.50;35.50;;;;;;5121780;27;20035;-57
2022/04/02 07:45:10;;;;;;;1.00;0.50;;;17.40;35.50;;;;;;5119482;27;20019;-58
2022/04/02 07:47:38;;;;;;;1.55;0.52;;;17.50;35.50;;;;;;5137611;27;20068;-57
2022/04/02 07:50:07;;;;;;;0.70;0.57;;;17.50;35.50;;;;;;5137184;27;20011;-57
2022/04/02 07:52:33;;;;;;;1.17;0.52;;;17.50;36.00;;;;;;5137479;27;20007;-58
2022/04/02 07:55:00;;;;;;;1.23;0.70;;;17.50;35.50;;;;;;5137432;27;20031;-58
2022/04/02 07:57:44;;;;;;;2.13;0.93;;;17.50;35.50;;;;;;5137141;27;20019;-59
2022/04/02 08:00:11;;;;;;;1.75;0.50;;;17.40;35.40;;;;;;5137374;27;20101;-58
2022/04/02 08:02:46;;;;;;;1.30;0.60;;;17.50;35.50;;;;;;5136993;27;20011;-57
2022/04/02 08:05:13;;;;;;;0.90;0.55;;;17.40;35.40;;;;;;5137238;27;20027;-58
2022/04/02 08:07:43;;;;;;;0.95;0.60;;;17.50;35.50;;;;;;5136976;27;20018;-58
2022/04/02 08:10:10;;;;;;;1.77;0.60;;;17.40;35.50;;;;;;5136942;27;20011;-59
2022/04/02 08:12:36;;;;;;;0.70;0.55;;;17.40;35.40;;;;;;5137299;27;20015;-58
2022/04/02 08:15:05;;;;;;;1.75;0.80;;;17.50;35.50;;;;;;5137161;27;20043;-57
2022/04/02 08:17:31;;;;;;;0.98;0.55;;;17.40;35.40;;;;;;5136774;27;20018;-58
2022/04/02 08:19:57;;;;;;;1.38;0.60;;;17.40;35.40;;;;;;5136673;27;20019;-58
2022/04/02 08:22:23;;;;;;;0.88;0.60;;;17.50;35.30;;;;;;5136572;27;20504;-58
2022/04/02 08:24:50;;;;;;;0.68;0.50;;;17.50;35.30;;;;;;5136509;27;20031;-58
2022/04/02 08:27:25;;;;;;;1.08;0.57;;;17.50;35.30;;;;;;5136802;27;20021;-58
2022/04/02 08:29:56;;;;;;;1.35;0.65;;;17.50;35.30;;;;;;5118004;27;20026;-58
2022/04/02 08:32:48;;;;;;;1.00;0.50;;;17.50;35.90;;;;;;5136390;27;20011;-58
2022/04/02 08:35:14;;;;;;;0.47;0.40;;;17.50;35.30;;;;;;5136629;27;20011;-58
2022/04/02 08:38:07;;;;;;;0.80;0.50;;;17.50;35.40;;;;;;5135263;27;20026;-57
2022/04/02 08:40:44;;;;;;;1.13;0.57;;;17.50;35.30;;;;;;5136625;27;20050;-58
2022/04/02 08:43:35;;;;;;;0.93;0.57;;;17.40;35.20;;;;;;5118111;27;20102;-57
2022/04/02 08:46:18;;;;;;;0.80;0.50;;;17.50;35.20;;;;;;5117841;27;20027;-58
2022/04/02 08:49:23;;;;;;;1.63;0.63;;;17.50;35.10;;;;;;5136417;27;20015;-58
2022/04/02 08:52:03;;;;;;;0.73;0.43;;;17.50;35.10;;;;;;5115683;27;20027;-58
2022/04/02 08:54:29;;;;;;;0.60;0.50;;;17.50;35.10;;;;;;5119112;27;20023;-58
2022/04/02 08:56:59;;;;;;;1.52;0.60;;;17.50;35.00;;;;;;5101245;27;20008;-58
2022/04/02 08:59:37;;;;;;;0.77;0.50;;;17.50;35.00;;;;;;5135896;27;20011;-58
2022/04/02 09:02:05;;;;;;;0.93;0.50;;;17.40;34.90;;;;;;5136195;27;20019;-58
2022/04/02 09:04:37;;;;;;;1.40;0.68;;;17.50;34.90;;;;;;5135825;27;20015;-59
2022/04/02 09:07:34;;;;;;;1.70;0.90;;;17.50;34.90;;;;;;5135976;27;20031;-57
2022/04/02 09:10:28;;;;;;;0.90;0.52;;;17.50;34.90;;;;;;5136040;27;20007;-58
2022/04/02 09:13:31;;;;;;;1.65;0.80;;;17.50;34.80;;;;;;5135671;27;20076;-58
2022/04/02 09:16:01;;;;;;;2.10;0.80;;;17.50;34.80;;;;;;5135678;27;20042;-59
2022/04/02 09:18:37;;;;;;;0.80;0.55;;;17.50;34.80;;;;;;5135871;27;20017;-58
2022/04/02 09:21:31;;;;;;;1.42;0.68;;;17.50;34.80;;;;;;5135568;27;20047;-58
2022/04/02 09:24:14;;;;;;;1.05;0.50;;;17.50;34.80;;;;;;5124671;27;20035;-59
2022/04/02 09:27:17;;;;;;;1.40;0.73;;;17.50;34.70;;;;;;5135616;27;20050;-58
2022/04/02 09:30:07;;;;;;;1.55;0.60;;;17.50;34.60;;;;;;5135704;27;20015;-57
2022/04/02 09:32:42;;;;;;;1.52;0.60;;;17.50;34.60;;;;;;5135673;27;20084;-58
2022/04/02 09:35:31;;;;;;;1.65;0.70;;;17.50;34.50;;;;;;5116823;27;20110;-58
2022/04/02 09:38:12;;;;;;;0.73;0.60;;;17.50;34.50;;;;;;5135477;27;20019;-57
2022/04/02 09:40:45;;;;;;;1.17;0.70;;;17.50;34.40;;;;;;5135136;27;20034;-58
2022/04/02 09:43:21;;;;;;;0.93;0.50;;;17.50;34.40;;;;;;5118094;27;20042;-58
2022/04/02 09:46:04;;;;;;;1.02;0.57;;;17.50;34.40;;;;;;5117126;27;20035;-58
2022/04/02 09:48:36;;;;;;;3.30;0.80;;;17.50;34.40;;;;;;5134882;27;20027;-58
2022/04/02 09:51:02;;;;;;;1.25;0.50;;;17.50;34.30;;;;;;5135209;27;20030;-58
2022/04/02 09:53:32;;;;;;;1.10;0.63;;;17.50;34.30;;;;;;5135311;27;20008;-58
2022/04/02 09:56:15;;;;;;;1.40;0.63;;;17.50;34.90;;;;;;5135136;27;20031;-60
2022/04/02 09:59:04;;;;;;;0.57;0.50;;;17.50;34.30;;;;;;5135113;27;20020;-61
2022/04/02 10:01:30;;;;;;;2.28;0.70;;;17.50;34.20;;;;;;5134639;27;20026;-57
2022/04/02 10:04:31;;;;;;;1.27;0.50;;;17.50;34.20;;;;;;5134621;27;20068;-58
2022/04/02 10:06:58;;;;;;;1.52;0.60;;;17.50;34.20;;;;;;5129993;27;20035;-58
2022/04/02 10:09:29;;;;;;;0.63;0.60;;;17.50;34.20;;;;;;5116513;27;20088;-57
2022/04/02 10:11:58;;;;;;;0.52;0.47;;;17.50;34.10;;;;;;5116226;27;20007;-58
2022/04/02 10:14:25;;;;;;;2.03;0.90;;;17.50;34.10;;;;;;5134570;27;20094;-58
2022/04/02 10:16:56;;;;;;;1.92;0.80;;;17.50;34.10;;;;;;5134814;27;20057;-58
2022/04/02 10:19:28;;;;;;;2.08;0.60;;;17.50;33.90;;;;;;5116068;27;20044;-58
2022/04/02 10:21:57;;;;;;;1.20;0.90;;;17.50;34.00;;;;;;5134364;27;20043;-59
2022/04/02 10:24:27;;;;;;;1.05;0.55;;;17.60;33.90;;;;;;5134691;27;20007;-59
2022/04/02 10:26:55;;;;;;;0.90;0.50;;;17.60;33.80;;;;;;5116153;27;20047;-59
2022/04/02 10:29:45;;;;;;;1.85;0.95;;;17.50;33.80;;;;;;5134414;27;20050;-58
2022/04/02 10:32:30;;;;;;;1.10;0.68;;;17.60;33.80;;;;;;5134706;27;20019;-58
2022/04/02 10:34:58;;;;;;;0.95;0.50;;;17.60;33.70;;;;;;5134539;27;20037;-58
2022/04/02 10:37:28;;;;;;;1.63;0.65;;;17.60;33.70;;;;;;5116586;27;20525;-58
2022/04/02 10:40:04;;;;;;;1.23;0.55;;;17.50;33.70;;;;;;5115753;27;20110;-59
2022/04/02 10:42:37;;;;;;;0.80;0.60;;;17.50;33.60;;;;;;5134870;27;20023;-59
2022/04/02 10:45:13;;;;;;;1.15;0.80;;;17.50;33.60;;;;;;5116978;27;20035;-58
2022/04/02 10:47:50;;;;;;;0.82;0.50;;;17.60;33.70;;;;;;5134442;27;20037;-58
2022/04/02 10:50:19;;;;;;;1.35;0.63;;;17.60;33.60;;;;;;5134185;27;20038;-58
2022/04/02 10:52:48;;;;;;;0.90;0.60;;;17.60;33.60;;;;;;5115797;27;20090;-57
2022/04/02 10:55:15;;;;;;;1.40;0.60;;;17.50;33.50;;;;;;5134157;27;20015;-58
2022/04/02 10:57:42;;;;;;;0.73;0.70;;;17.50;33.50;;;;;;5134049;27;20011;-57
2022/04/02 11:00:09;;;;;;;0.50;0.50;;;17.50;33.40;;;;;;5133170;27;20099;-57
2022/04/02 11:02:42;;;;;;;1.90;0.77;;;17.50;33.50;;;;;;5133909;27;20026;-58
2022/04/02 11:05:09;;;;;;;1.55;0.70;;;17.50;33.40;;;;;;5133941;28;20031;-58
2022/04/02 11:07:40;;;;;;;1.00;0.60;;;17.50;33.40;;;;;;5133973;28;20011;-57
2022/04/02 11:10:07;;;;;;;0.95;0.60;;;17.50;33.50;;;;;;5134001;28;20023;-58
2022/04/02 11:12:38;;;;;;;1.38;0.68;;;17.50;33.40;;;;;;5134119;28;20015;-59
2022/04/02 11:15:12;;;;;;;0.85;0.50;;;17.50;33.40;;;;;;5134050;28;20019;-58
2022/04/02 11:17:41;;;;;;;0.57;0.50;;;17.50;33.40;;;;;;5133715;28;20026;-58
2022/04/02 11:20:07;;;;;;;0.90;0.65;;;17.50;33.30;;;;;;5134042;28;20012;-58
2022/04/02 11:22:49;;;;;;;1.15;0.52;;;17.50;33.40;;;;;;5133524;28;20040;-59
2022/04/02 11:25:23;;;;;;;1.38;0.70;;;17.50;33.40;;;;;;5133465;28;20035;-58
2022/04/02 11:27:50;;;;;;;1.25;0.60;;;17.50;33.40;;;;;;5115166;28;20491;-57
2022/04/02 11:30:16;;;;;;;1.75;0.68;;;17.60;33.30;;;;;;5133781;28;20582;-58
2022/04/02 11:32:44;;;;;;;1.02;0.68;;;17.50;33.20;;;;;;5133494;28;20015;-58
2022/04/02 11:35:37;;;;;;;0.73;0.65;;;17.50;33.20;;;;;;5133463;28;20034;-58
2022/04/02 11:38:10;;;;;;;2.17;0.70;;;17.50;33.30;;;;;;5128552;28;20050;-58
2022/04/02 11:40:42;;;;;;;1.17;0.80;;;17.60;33.30;;;;;;5133417;28;20031;-58
2022/04/02 11:43:08;;;;;;;0.70;0.50;;;17.50;33.30;;;;;;5115672;28;20022;-59
2022/04/02 11:45:36;;;;;;;1.83;0.85;;;17.50;33.30;;;;;;5133545;28;20696;-59
2022/04/02 11:48:10;;;;;;;0.73;0.55;;;17.50;33.30;;;;;;5133327;28;20019;-59
2022/04/02 11:50:43;;;;;;;0.40;0.40;;;17.50;33.10;;;;;;5133280;28;20012;-59
2022/04/02 11:53:10;;;;;;;3.40;0.60;;;17.50;33.20;;;;;;5133550;28;20019;-59
2022/04/02 11:55:36;;;;;;;1.27;0.50;;;17.50;33.10;;;;;;5133578;28;20023;-58
2022/04/02 11:58:09;;;;;;;1.05;0.63;;;17.50;33.10;;;;;;5133507;28;20148;-59
2022/04/02 12:00:37;;;;;;;1.13;0.52;;;17.50;33.00;;;;;;5133385;28;20020;-57
2022/04/02 12:03:03;;;;;;;0.40;0.40;;;17.50;32.90;;;;;;5133135;28;20022;-58
2022/04/02 12:05:42;;;;;;;0.57;0.55;;;17.50;33.00;;;;;;5097885;28;20481;-57
2022/04/02 12:08:10;;;;;;;1.05;0.70;;;17.50;33.10;;;;;;5133201;28;20019;-59
2022/04/02 12:10:48;;;;;;;1.10;0.73;;;17.40;33.00;;;;;;5115293;27;20011;-58
2022/04/02 12:13:14;;;;;;;1.25;0.60;;;17.40;32.90;;;;;;5118488;27;20211;-59
2022/04/02 12:15:40;;;;;;;1.02;0.50;;;17.40;32.90;;;;;;5136769;27;20473;-60
2022/04/02 12:18:07;;;;;;;2.70;0.90;;;17.40;32.90;;;;;;5137304;27;20068;-59
2022/04/02 12:20:40;;;;;;;1.83;0.80;;;17.40;32.80;;;;;;5136988;27;20098;-60
2022/04/02 12:23:16;;;;;;;1.48;0.68;;;17.40;32.90;;;;;;5136542;27;20087;-59
2022/04/02 12:25:59;;;;;;;1.13;0.50;;;17.40;32.90;;;;;;5136591;27;20088;-59
2022/04/02 12:28:25;;;;;;;1.65;0.60;;;17.40;32.90;;;;;;5136815;27;20016;-59
2022/04/02 12:30:52;;;;;;;1.05;0.50;;;17.40;32.90;;;;;;5118494;27;20026;-59
2022/04/02 12:33:21;;;;;;;0.70;0.50;;;17.40;32.90;;;;;;5136812;27;20019;-59
2022/04/02 12:36:05;;;;;;;1.58;0.60;;;17.40;32.70;;;;;;5136373;27;20015;-59
2022/04/02 12:38:32;;;;;;;0.93;0.50;;;17.40;32.90;;;;;;5136612;27;20015;-60
2022/04/02 12:40:58;;;;;;;1.63;0.68;;;17.40;32.90;;;;;;5136617;27;20023;-59
2022/04/02 12:43:26;;;;;;;1.20;0.60;;;17.40;32.90;;;;;;5136582;27;20011;-59
2022/04/02 12:45:53;;;;;;;0.95;0.60;;;17.40;32.80;;;;;;5136415;27;20054;-58
2022/04/02 12:48:21;;;;;;;0.80;0.65;;;17.40;32.90;;;;;;5117918;27;20046;-57
2022/04/02 12:51:02;;;;;;;0.80;0.50;;;17.40;32.90;;;;;;5118021;27;20034;-59
2022/04/02 12:53:28;;;;;;;;;;;17.40;32.80;;;;;;5136705;27;20015;-58
2022/04/02 12:55:54;;;;;;;1.70;0.60;;;17.40;32.80;;;;;;5136429;27;19907;-59
2022/04/02 12:58:38;;;;;;;0.95;0.65;;;17.40;32.80;;;;;;5136225;27;20015;-59
2022/04/02 13:01:09;;;;;;;1.27;0.60;;;17.50;32.80;;;;;;5135925;27;20518;-58
2022/04/02 13:03:55;;;;;;;1.02;0.60;;;17.50;32.80;;;;;;5136234;27;20649;-59